createdAt,value
2022-12-11T00:02:08.198Z,-7.76
2022-12-11T00:04:35.429Z,-8.24
2022-12-11T00:07:02.357Z,-8.27
2022-12-11T00:09:29.353Z,-7.28
2022-12-11T00:11:56.373Z,-7.78
2022-12-11T00:14:23.044Z,-7.25
2022-12-11T00:16:49.812Z,-7.47
2022-12-11T00:19:17.200Z,-7.14
2022-12-11T00:21:44.529Z,-7.84
2022-12-11T00:24:11.505Z,-7.25
2022-12-11T00:26:38.845Z,-7.70
2022-12-11T00:29:05.910Z,-7.37
2022-12-11T00:31:32.587Z,-7.62
2022-12-11T00:34:01.345Z,-8.71
2022-12-11T00:36:28.318Z,-9.84
2022-12-11T00:38:55.307Z,-9.22
2022-12-11T00:41:22.231Z,-8.47
2022-12-11T00:43:49.060Z,-7.79
2022-12-11T00:46:15.948Z,-8.82
2022-12-11T00:48:42.956Z,-9.08
2022-12-11T00:51:10.926Z,-8.01
2022-12-11T00:53:39.044Z,-8.15
2022-12-11T00:56:14.573Z,-9.05
2022-12-11T00:58:41.381Z,-8.95
2022-12-11T01:01:11.498Z,-9.31
2022-12-11T01:03:38.482Z,-8.98
2022-12-11T01:06:06.879Z,-8.53
2022-12-11T01:08:38.487Z,-8.97
2022-12-11T01:11:08.876Z,-9.74
2022-12-11T01:13:35.629Z,-8.82
2022-12-11T01:16:07.956Z,-9.54
2022-12-11T01:18:34.985Z,-9.16
2022-12-11T01:21:06.973Z,-8.35
2022-12-11T01:23:33.882Z,-8.86
2022-12-11T01:26:13.025Z,-9.45
2022-12-11T01:28:40.431Z,-8.20
2022-12-11T01:31:16.971Z,-8.62
2022-12-11T01:33:43.698Z,-9.18
2022-12-11T01:36:16.708Z,-9.31
2022-12-11T01:38:44.131Z,-9.36
2022-12-11T01:41:11.388Z,-8.37
2022-12-11T01:44:06.162Z,-8.32
2022-12-11T01:46:36.270Z,-8.29
2022-12-11T01:49:07.389Z,-9.47
2022-12-11T01:51:40.504Z,-8.89
2022-12-11T01:54:11.353Z,-8.38
2022-12-11T01:56:39.900Z,-8.17
2022-12-11T01:59:09.452Z,-8.95
2022-12-11T02:01:51.057Z,-9.58
2022-12-11T02:04:19.929Z,-9.67
2022-12-11T02:06:49.118Z,-8.26
2022-12-11T02:09:23.159Z,-7.96
2022-12-11T02:12:00.446Z,-8.34
2022-12-11T02:14:49.787Z,-8.68
2022-12-11T02:17:24.013Z,-8.77
2022-12-11T02:20:22.149Z,-8.22
2022-12-11T02:23:13.314Z,-8.16
2022-12-11T02:26:15.206Z,-8.11
2022-12-11T02:28:55.897Z,-8.25
2022-12-11T02:31:41.106Z,-8.28
2022-12-11T02:34:13.780Z,-9.28
2022-12-11T02:36:45.344Z,-9.50
2022-12-11T02:39:15.046Z,-9.32
2022-12-11T02:41:46.969Z,-9.59
2022-12-11T02:44:17.553Z,-10.48
2022-12-11T02:46:45.166Z,-9.16
2022-12-11T02:49:13.642Z,-9.33
2022-12-11T02:51:41.717Z,-8.64
2022-12-11T02:54:16.433Z,-8.94
2022-12-11T02:57:11.406Z,-8.39
2022-12-11T02:59:46.433Z,-8.43
2022-12-11T03:02:15.251Z,-9.12
2022-12-11T03:04:43.032Z,-8.77
2022-12-11T03:07:17.997Z,-8.65
2022-12-11T03:09:47.228Z,-8.42
2022-12-11T03:12:18.937Z,-9.06
2022-12-11T03:14:46.328Z,-9.28
2022-12-11T03:17:18.136Z,-8.73
2022-12-11T03:20:07.375Z,-10.27
2022-12-11T03:22:43.615Z,-9.86
2022-12-11T03:25:17.992Z,-8.91
2022-12-11T03:27:55.539Z,-9.42
2022-12-11T03:30:24.273Z,-9.80
2022-12-11T03:32:58.801Z,-10.25
2022-12-11T03:35:34.943Z,-9.55
2022-12-11T03:38:06.393Z,-9.32
2022-12-11T03:40:35.614Z,-8.46
2022-12-11T03:43:03.060Z,-8.85
2022-12-11T03:45:30.550Z,-8.56
2022-12-11T03:48:01.684Z,-9.88
2022-12-11T03:50:32.254Z,-8.91
2022-12-11T03:53:01.897Z,-9.00
2022-12-11T03:55:30.921Z,-8.24
2022-12-11T03:57:57.806Z,-9.15
2022-12-11T04:00:24.543Z,-8.39
2022-12-11T04:03:13.615Z,-9.77
2022-12-11T04:05:47.080Z,-8.79
2022-12-11T04:08:15.139Z,-9.01
2022-12-11T04:10:42.285Z,-8.63
2022-12-11T04:13:10.547Z,-9.50
2022-12-11T04:15:38.524Z,-8.85
2022-12-11T04:18:25.426Z,-9.12
2022-12-11T04:21:15.310Z,-9.62
2022-12-11T04:24:00.638Z,-9.31
2022-12-11T04:26:27.362Z,-9.31
2022-12-11T04:28:54.044Z,-9.28
2022-12-11T04:31:22.438Z,-9.13
2022-12-11T04:33:49.326Z,-9.20
2022-12-11T04:36:16.393Z,-10.41
2022-12-11T04:38:43.025Z,-9.29
2022-12-11T04:41:12.794Z,-10.38
2022-12-11T04:43:40.165Z,-9.21
2022-12-11T04:46:10.315Z,-11.44
2022-12-11T04:48:39.506Z,-9.22
2022-12-11T04:51:07.282Z,-10.42
2022-12-11T04:53:35.228Z,-9.29
2022-12-11T04:56:05.154Z,-9.27
2022-12-11T04:58:31.873Z,-10.00
2022-12-11T05:01:00.042Z,-10.14
2022-12-11T05:03:26.890Z,-10.08
2022-12-11T05:05:53.871Z,-9.80
2022-12-11T05:08:21.974Z,-8.97
2022-12-11T05:10:59.577Z,-9.74
2022-12-11T05:13:27.548Z,-9.75
2022-12-11T05:15:54.270Z,-9.20
2022-12-11T05:18:21.788Z,-9.38
2022-12-11T05:21:02.926Z,-9.32
2022-12-11T05:23:29.990Z,-10.21
2022-12-11T05:26:00.796Z,-9.18
2022-12-11T05:28:30.967Z,-9.67
2022-12-11T05:30:57.932Z,-9.70
2022-12-11T05:33:25.415Z,-9.24
2022-12-11T05:35:52.453Z,-9.94
2022-12-11T05:38:21.520Z,-10.33
2022-12-11T05:41:07.928Z,-9.99
2022-12-11T05:43:36.570Z,-9.07
2022-12-11T05:46:24.589Z,-9.76
2022-12-11T05:48:54.073Z,-10.19
2022-12-11T05:51:22.457Z,-9.10
2022-12-11T05:53:50.552Z,-9.20
2022-12-11T05:56:21.203Z,-8.93
2022-12-11T05:58:49.458Z,-10.29
2022-12-11T06:01:20.012Z,-9.33
2022-12-11T06:03:46.888Z,-9.75
2022-12-11T06:06:14.496Z,-9.42
2022-12-11T06:08:41.606Z,-9.27
2022-12-11T06:11:09.025Z,-10.37
2022-12-11T06:13:35.778Z,-8.69
2022-12-11T06:16:07.430Z,-8.55
2022-12-11T06:18:40.751Z,-8.55
2022-12-11T06:21:32.093Z,-8.46
2022-12-11T06:24:02.798Z,-8.42
2022-12-11T06:26:29.982Z,-8.79
2022-12-11T06:28:56.643Z,-8.28
2022-12-11T06:31:23.420Z,-8.78
2022-12-11T06:33:50.321Z,-8.56
2022-12-11T06:36:21.720Z,-8.34
2022-12-11T06:38:48.566Z,-9.55
2022-12-11T06:41:15.466Z,-9.58
2022-12-11T06:43:43.047Z,-8.48
2022-12-11T06:46:15.930Z,-8.53
2022-12-11T06:48:43.845Z,-8.61
2022-12-11T06:51:15.790Z,-11.36
2022-12-11T06:53:44.161Z,-8.77
2022-12-11T06:56:15.719Z,-9.64
2022-12-11T06:58:44.265Z,-8.88
2022-12-11T07:01:19.920Z,-8.88
2022-12-11T07:03:49.352Z,-9.00
2022-12-11T07:06:17.189Z,-9.37
2022-12-11T07:08:44.554Z,-9.06
2022-12-11T07:11:13.967Z,-9.00
2022-12-11T07:13:42.213Z,-9.12
2022-12-11T07:16:11.215Z,-8.44
2022-12-11T07:18:42.801Z,-8.50
2022-12-11T07:21:11.710Z,-10.12
2022-12-11T07:23:38.639Z,-8.45
2022-12-11T07:26:07.792Z,-9.49
2022-12-11T07:28:35.256Z,-8.93
2022-12-11T07:31:27.339Z,-8.64
2022-12-11T07:34:00.177Z,-8.89
2022-12-11T07:36:28.321Z,-9.31
2022-12-11T07:38:55.231Z,-8.86
2022-12-11T07:41:23.159Z,-9.11
2022-12-11T07:43:54.044Z,-8.60
2022-12-11T07:46:24.065Z,-8.24
2022-12-11T07:48:51.475Z,-8.24
2022-12-11T07:51:27.749Z,-8.11
2022-12-11T07:53:57.449Z,-9.21
2022-12-11T07:56:24.593Z,-7.86
2022-12-11T07:58:51.343Z,-8.58
2022-12-11T08:01:24.461Z,-7.89
2022-12-11T08:03:51.581Z,-7.84
2022-12-11T08:06:21.442Z,-8.03
2022-12-11T08:08:48.210Z,-8.15
2022-12-11T08:11:15.752Z,-7.96
2022-12-11T08:13:44.347Z,-8.84
2022-12-11T08:16:14.067Z,-8.65
2022-12-11T08:18:41.945Z,-8.24
2022-12-11T08:21:16.790Z,-7.85
2022-12-11T08:23:44.114Z,-7.88
2022-12-11T08:26:19.561Z,-7.74
2022-12-11T08:28:46.338Z,-8.10
2022-12-11T08:31:14.873Z,-7.82
2022-12-11T08:33:42.223Z,-8.78
2022-12-11T08:36:11.724Z,-7.56
2022-12-11T08:38:38.784Z,-7.41
2022-12-11T08:41:31.774Z,-7.63
2022-12-11T08:44:00.504Z,-8.32
2022-12-11T08:46:30.620Z,-7.87
2022-12-11T08:48:58.334Z,-9.17
2022-12-11T08:51:27.298Z,-9.42
2022-12-11T08:53:59.191Z,-8.31
2022-12-11T08:56:26.806Z,-7.91
2022-12-11T08:58:54.072Z,-8.60
2022-12-11T09:01:23.672Z,-7.84
2022-12-11T09:03:51.675Z,-7.88
2022-12-11T09:06:21.999Z,-8.16
2022-12-11T09:08:53.112Z,-8.43
2022-12-11T09:11:26.113Z,-8.33
2022-12-11T09:13:53.451Z,-9.33
2022-12-11T09:16:21.882Z,-7.31
2022-12-11T09:18:50.564Z,-7.21
2022-12-11T09:21:19.839Z,-8.33
2022-12-11T09:23:47.188Z,-7.46
2022-12-11T09:26:16.274Z,-7.19
2022-12-11T09:28:46.623Z,-7.72
2022-12-11T09:31:34.184Z,-6.97
2022-12-11T09:34:04.875Z,-7.30
2022-12-11T09:36:34.650Z,-6.74
2022-12-11T09:39:03.731Z,-6.93
2022-12-11T09:42:35.466Z,-6.61
2022-12-11T09:45:04.355Z,-7.37
2022-12-11T09:47:30.988Z,-7.04
2022-12-11T09:50:15.721Z,-8.33
2022-12-11T09:53:00.597Z,-6.67
2022-12-11T09:55:37.959Z,-6.66
2022-12-11T09:58:27.800Z,-6.51
2022-12-11T10:01:00.812Z,-7.57
2022-12-11T10:04:02.434Z,-6.52
2022-12-11T10:06:38.398Z,-7.59
2022-12-11T10:09:34.675Z,-6.78
2022-12-11T10:12:12.582Z,-7.87
2022-12-11T10:15:21.414Z,-6.49
2022-12-11T10:17:50.421Z,-7.15
2022-12-11T10:20:23.875Z,-6.57
2022-12-11T10:22:52.329Z,-6.97
2022-12-11T10:25:27.367Z,-6.92
2022-12-11T10:27:54.419Z,-6.94
2022-12-11T10:30:25.200Z,-6.67
2022-12-11T10:33:13.733Z,-6.41
2022-12-11T10:35:51.638Z,-6.30
2022-12-11T10:38:27.478Z,-6.30
2022-12-11T10:41:18.025Z,-6.48
2022-12-11T10:43:47.773Z,-8.31
2022-12-11T10:46:28.886Z,-6.26
2022-12-11T10:48:58.092Z,-6.12
2022-12-11T10:51:26.652Z,-7.86
2022-12-11T10:53:57.262Z,-6.35
2022-12-11T10:56:32.739Z,-6.71
2022-12-11T10:59:01.290Z,-7.72
2022-12-11T11:01:32.582Z,-7.16
2022-12-11T11:04:06.980Z,-6.47
2022-12-11T11:06:33.970Z,-7.39
2022-12-11T11:09:01.679Z,-6.63
2022-12-11T11:11:36.772Z,-6.47
2022-12-11T11:14:16.553Z,-6.65
2022-12-11T11:16:47.143Z,-6.40
2022-12-11T11:19:35.061Z,-6.42
2022-12-11T11:22:28.150Z,-6.16
2022-12-11T11:24:58.319Z,-6.71
2022-12-11T11:27:40.101Z,-6.47
2022-12-11T11:30:19.470Z,-6.24
2022-12-11T11:32:46.449Z,-7.69
2022-12-11T11:35:13.472Z,-5.93
2022-12-11T11:37:44.499Z,-5.95
2022-12-11T11:40:23.558Z,-7.27
2022-12-11T11:43:09.069Z,-5.88
2022-12-11T11:45:39.591Z,-5.72
2022-12-11T11:48:25.609Z,-5.80
2022-12-11T11:50:54.024Z,-5.86
2022-12-11T11:53:41.548Z,-5.58
2022-12-11T11:56:11.063Z,-5.53
2022-12-11T11:58:59.580Z,-5.53
2022-12-11T12:01:26.895Z,-6.18
2022-12-11T12:03:54.298Z,-6.65
2022-12-11T12:06:47.462Z,-5.85
2022-12-11T12:09:36.266Z,-5.62
2022-12-11T12:12:08.695Z,-5.67
2022-12-11T12:14:53.716Z,-5.60
2022-12-11T12:17:26.070Z,-5.84
2022-12-11T12:20:38.869Z,-6.02
2022-12-11T12:23:30.726Z,-6.07
2022-12-11T12:26:14.865Z,-6.05
2022-12-11T12:28:57.185Z,-6.72
2022-12-11T12:32:01.174Z,-5.76
2022-12-11T12:35:01.594Z,-5.88
2022-12-11T12:37:47.285Z,-5.81
2022-12-11T12:40:22.963Z,-5.64
2022-12-11T12:43:27.548Z,-5.65
2022-12-11T12:46:19.053Z,-6.16
2022-12-11T12:48:45.834Z,-6.74
2022-12-11T12:51:15.116Z,-6.00
2022-12-11T12:53:48.301Z,-7.11
2022-12-11T12:56:16.066Z,-6.52
2022-12-11T12:58:45.621Z,-7.08
2022-12-11T13:01:12.225Z,-6.13
2022-12-11T13:04:05.761Z,-6.08
2022-12-11T13:06:47.154Z,-6.03
2022-12-11T13:09:26.271Z,-5.92
2022-12-11T13:11:57.756Z,-6.02
2022-12-11T13:14:31.808Z,-5.97
2022-12-11T13:17:42.801Z,-6.10
2022-12-11T13:20:15.087Z,-6.03
2022-12-11T13:22:56.438Z,-5.83
2022-12-11T13:25:25.350Z,-5.95
2022-12-11T13:27:52.445Z,-6.01
2022-12-11T13:30:19.238Z,-6.08
2022-12-11T13:33:06.102Z,-5.97
2022-12-11T13:35:34.502Z,-5.95
2022-12-11T13:38:16.857Z,-6.55
2022-12-11T13:40:46.605Z,-5.93
2022-12-11T13:43:18.395Z,-5.96
2022-12-11T13:46:04.118Z,-6.24
2022-12-11T13:48:39.227Z,-7.01
2022-12-11T13:51:07.073Z,-6.15
2022-12-11T13:53:34.049Z,-6.68
2022-12-11T13:56:03.744Z,-6.49
2022-12-11T13:58:34.778Z,-5.47
2022-12-11T14:01:07.849Z,-6.03
2022-12-11T14:03:35.460Z,-5.97
2022-12-11T14:06:03.661Z,-7.06
2022-12-11T14:08:40.195Z,-7.81
2022-12-11T14:11:07.605Z,-6.02
2022-12-11T14:13:37.624Z,-5.97
2022-12-11T14:16:06.222Z,-8.27
2022-12-11T14:18:35.378Z,-8.16
2022-12-11T14:21:06.186Z,-5.87
2022-12-11T14:23:34.898Z,-6.88
2022-12-11T14:26:05.010Z,-5.84
2022-12-11T14:28:41.172Z,-6.11
2022-12-11T14:31:08.114Z,-6.23
2022-12-11T14:33:43.792Z,-6.66
2022-12-11T14:36:11.348Z,-7.41
2022-12-11T14:38:46.199Z,-5.81
2022-12-11T14:41:25.073Z,-5.98
2022-12-11T14:43:57.131Z,-6.38
2022-12-11T14:46:41.530Z,-7.26
2022-12-11T14:49:35.402Z,-7.05
2022-12-11T14:52:04.024Z,-6.69
2022-12-11T14:54:41.276Z,-5.84
2022-12-11T14:57:14.249Z,-7.09
2022-12-11T14:59:46.265Z,-5.73
2022-12-11T15:02:27.178Z,-5.62
2022-12-11T15:05:12.455Z,-7.16
2022-12-11T15:07:41.960Z,-6.22
2022-12-11T15:10:22.732Z,-7.20
2022-12-11T15:12:49.652Z,-8.18
2022-12-11T15:15:17.840Z,-6.38
2022-12-11T15:17:51.156Z,-5.92
2022-12-11T15:20:25.946Z,-6.42
2022-12-11T15:22:54.071Z,-7.18
2022-12-11T15:25:24.068Z,-6.17
2022-12-11T15:27:54.228Z,-6.69
2022-12-11T15:30:26.523Z,-6.47
2022-12-11T15:33:17.519Z,-5.82
2022-12-11T15:36:01.747Z,-7.49
2022-12-11T15:38:37.420Z,-5.91
2022-12-11T15:41:04.546Z,-6.42
2022-12-11T15:43:36.151Z,-5.99
2022-12-11T15:46:06.542Z,-7.08
2022-12-11T15:48:33.598Z,-6.94
2022-12-11T15:51:00.275Z,-6.29
2022-12-11T15:53:27.142Z,-5.82
2022-12-11T15:55:54.062Z,-6.65
2022-12-11T15:58:24.217Z,-6.94
2022-12-11T16:00:51.092Z,-6.15
2022-12-11T16:03:19.541Z,-8.65
2022-12-11T16:05:46.733Z,-7.28
2022-12-11T16:08:15.841Z,-6.96
2022-12-11T16:10:44.318Z,-5.82
2022-12-11T16:13:12.126Z,-5.89
2022-12-11T16:15:41.622Z,-5.97
2022-12-11T16:18:11.963Z,-7.70
2022-12-11T16:20:40.094Z,-6.82
2022-12-11T16:23:10.105Z,-6.53
2022-12-11T16:25:39.084Z,-7.21
2022-12-11T16:28:36.686Z,-6.08
2022-12-11T16:31:04.309Z,-7.07
2022-12-11T16:33:43.302Z,-7.24
2022-12-11T16:36:23.032Z,-6.18
2022-12-11T16:39:04.555Z,-7.71
2022-12-11T16:41:32.588Z,-6.87
2022-12-11T16:44:12.984Z,-7.87
2022-12-11T16:49:53.569Z,-6.50
2022-12-11T16:52:39.819Z,-6.40
2022-12-11T16:55:07.569Z,-7.74
2022-12-11T16:57:34.728Z,-7.65
2022-12-11T17:00:01.486Z,-6.43
2022-12-11T17:02:28.244Z,-6.50
2022-12-11T17:04:57.705Z,-7.77
2022-12-11T17:07:24.819Z,-6.97
2022-12-11T17:09:52.003Z,-6.62
2022-12-11T17:12:18.783Z,-7.35
2022-12-11T17:14:45.595Z,-7.06
2022-12-11T17:17:12.214Z,-7.47
2022-12-11T17:19:39.010Z,-8.23
2022-12-11T17:22:05.658Z,-7.87
2022-12-11T17:24:32.552Z,-7.60
2022-12-11T17:26:59.782Z,-7.00
2022-12-11T17:29:26.778Z,-7.31
2022-12-11T17:31:53.493Z,-6.67
2022-12-11T17:34:20.210Z,-6.39
2022-12-11T17:36:46.868Z,-6.50
2022-12-11T17:39:16.267Z,-7.14
2022-12-11T17:41:42.958Z,-7.69
2022-12-11T17:44:09.925Z,-5.91
2022-12-11T17:46:36.748Z,-5.65
2022-12-11T17:49:04.678Z,-5.53
2022-12-11T17:51:33.037Z,-5.66
2022-12-11T17:53:59.733Z,-6.06
2022-12-11T17:56:26.873Z,-6.08
2022-12-11T17:58:53.707Z,-7.02
2022-12-11T18:01:20.821Z,-5.97
2022-12-11T18:03:47.749Z,-7.35
2022-12-11T18:06:15.692Z,-6.23
2022-12-11T18:08:43.005Z,-6.11
2022-12-11T18:11:17.301Z,-5.80
2022-12-11T18:13:45.041Z,-6.95
2022-12-11T18:16:33.030Z,-6.13
2022-12-11T18:18:59.756Z,-7.66
2022-12-11T18:21:31.751Z,-5.93
2022-12-11T18:23:59.639Z,-5.36
2022-12-11T18:26:27.636Z,-5.87
2022-12-11T18:28:57.101Z,-5.36
2022-12-11T18:31:24.341Z,-5.55
2022-12-11T18:33:51.982Z,-5.97
2022-12-11T18:36:20.129Z,-5.05
2022-12-11T18:38:47.949Z,-5.02
2022-12-11T18:41:15.914Z,-4.90
2022-12-11T18:43:42.754Z,-5.30
2022-12-11T18:46:12.738Z,-6.78
2022-12-11T18:48:39.925Z,-6.06
2022-12-11T18:51:09.185Z,-5.45
2022-12-11T18:53:37.070Z,-6.94
2022-12-11T18:56:12.418Z,-5.79
2022-12-11T18:58:39.836Z,-7.29
2022-12-11T19:01:13.830Z,-6.48
2022-12-11T19:03:44.257Z,-5.49
2022-12-11T19:06:18.857Z,-6.39
2022-12-11T19:08:46.726Z,-7.30
2022-12-11T19:11:18.523Z,-6.90
2022-12-11T19:13:45.749Z,-5.52
2022-12-11T19:16:22.159Z,-5.27
2022-12-11T19:18:49.574Z,-5.12
2022-12-11T19:21:17.354Z,-5.24
2022-12-11T19:23:45.201Z,-5.37
2022-12-11T19:26:21.433Z,-5.45
2022-12-11T19:28:49.745Z,-5.96
2022-12-11T19:31:19.837Z,-7.07
2022-12-11T19:33:47.105Z,-6.57
2022-12-11T19:36:16.773Z,-6.51
2022-12-11T19:38:45.255Z,-7.29
2022-12-11T19:41:18.360Z,-5.67
2022-12-11T19:43:45.401Z,-5.90
2022-12-11T19:46:13.302Z,-6.63
2022-12-11T19:48:41.770Z,-6.57
2022-12-11T19:51:14.279Z,-5.77
2022-12-11T19:53:41.938Z,-5.72
2022-12-11T19:56:10.224Z,-6.28
2022-12-11T19:58:38.025Z,-6.99
2022-12-11T20:01:05.743Z,-7.20
2022-12-11T20:03:33.529Z,-6.61
2022-12-11T20:06:08.351Z,-6.19
2022-12-11T20:08:44.654Z,-6.50
2022-12-11T20:11:18.342Z,-7.74
2022-12-11T20:13:46.773Z,-6.16
2022-12-11T20:16:14.750Z,-6.46
2022-12-11T20:18:41.893Z,-7.14
2022-12-11T20:21:12.300Z,-7.03
2022-12-11T20:23:39.402Z,-5.98
2022-12-11T20:26:08.519Z,-7.44
2022-12-11T20:28:35.741Z,-6.82
2022-12-11T20:31:16.552Z,-6.40
2022-12-11T20:33:48.716Z,-5.99
2022-12-11T20:36:19.933Z,-6.93
2022-12-11T20:38:46.777Z,-6.14
2022-12-11T20:41:16.145Z,-7.53
2022-12-11T20:43:43.427Z,-8.05
2022-12-11T20:46:12.500Z,-6.07
2022-12-11T20:48:40.833Z,-6.00
2022-12-11T20:51:09.907Z,-8.13
2022-12-11T20:53:37.792Z,-7.64
2022-12-11T20:56:17.196Z,-6.85
2022-12-11T20:58:45.128Z,-6.39
2022-12-11T21:01:16.425Z,-7.10
2022-12-11T21:03:43.580Z,-6.26
2022-12-11T21:06:30.775Z,-6.15
2022-12-11T21:08:59.269Z,-7.68
2022-12-11T21:11:26.212Z,-6.80
2022-12-11T21:13:53.452Z,-9.34
2022-12-11T21:16:20.537Z,-6.30
2022-12-11T21:18:48.312Z,-7.58
2022-12-11T21:21:16.454Z,-6.32
2022-12-11T21:23:44.061Z,-6.56
2022-12-11T21:26:10.993Z,-7.25
2022-12-11T21:28:37.785Z,-8.21
2022-12-11T21:31:11.731Z,-5.93
2022-12-11T21:33:39.013Z,-6.31
2022-12-11T21:36:07.154Z,-7.10
2022-12-11T21:38:34.384Z,-6.27
2022-12-11T21:41:27.705Z,-5.69
2022-12-11T21:45:25.532Z,-9.16
2022-12-11T21:46:46.258Z,-5.91
2022-12-11T21:49:13.061Z,-8.55
2022-12-11T21:51:46.805Z,-6.54
2022-12-11T21:54:16.629Z,-6.08
2022-12-11T21:56:44.788Z,-5.97
2022-12-11T21:59:11.735Z,-6.45
2022-12-11T22:01:42.194Z,-8.94
2022-12-11T22:04:10.553Z,-7.74
2022-12-11T22:06:37.584Z,-7.76
2022-12-11T22:09:05.683Z,-8.35
2022-12-11T22:11:34.545Z,-6.20
2022-12-11T22:14:02.121Z,-6.24
2022-12-11T22:16:29.047Z,-7.24
2022-12-11T22:18:56.160Z,-6.29
2022-12-11T22:21:22.943Z,-6.70
2022-12-11T22:23:49.801Z,-7.02
2022-12-11T22:26:20.109Z,-6.42
2022-12-11T22:28:47.006Z,-6.81
2022-12-11T22:31:16.953Z,-6.52
2022-12-11T22:33:44.155Z,-7.70
2022-12-11T22:36:11.781Z,-7.78
2022-12-11T22:38:41.061Z,-7.24
2022-12-11T22:41:16.328Z,-7.15
2022-12-11T22:43:47.312Z,-7.41
2022-12-11T22:46:19.004Z,-7.16
2022-12-11T22:48:45.845Z,-7.46
2022-12-11T22:51:13.165Z,-6.28
2022-12-11T22:53:40.063Z,-6.26
2022-12-11T22:56:08.417Z,-6.71
2022-12-11T22:58:35.743Z,-8.48
2022-12-11T23:01:13.247Z,-8.49
2022-12-11T23:03:40.566Z,-6.62
2022-12-11T23:06:11.237Z,-6.43
2022-12-11T23:08:39.236Z,-7.17
2022-12-11T23:11:18.516Z,-6.88
2022-12-11T23:13:45.397Z,-8.70
2022-12-11T23:16:13.155Z,-6.88
2022-12-11T23:18:40.442Z,-6.25
2022-12-11T23:21:08.088Z,-6.49
2022-12-11T23:23:35.143Z,-7.08
2022-12-11T23:26:04.840Z,-6.53
2022-12-11T23:28:32.092Z,-6.53
2022-12-11T23:30:58.876Z,-7.63
2022-12-11T23:33:26.123Z,-6.62
2022-12-11T23:35:52.819Z,-7.88
2022-12-11T23:38:20.322Z,-7.09
2022-12-11T23:40:47.166Z,-6.86
2022-12-11T23:43:13.864Z,-9.35
2022-12-11T23:45:44.403Z,-6.38
2022-12-11T23:48:12.710Z,-9.15
2022-12-11T23:50:41.147Z,-7.19
2022-12-11T23:53:07.879Z,-6.98
2022-12-11T23:55:34.787Z,-6.70
2022-12-11T23:58:01.535Z,-6.70
